createdAt,value
2022-12-13T00:02:18.913Z,47.33
2022-12-13T00:04:49.741Z,40.10
2022-12-13T00:07:20.430Z,41.53
2022-12-13T00:09:51.110Z,34.25
2022-12-13T00:12:21.779Z,31.17
2022-12-13T00:14:52.467Z,32.13
2022-12-13T00:17:23.760Z,29.57
2022-12-13T00:19:54.589Z,30.77
2022-12-13T00:22:25.362Z,29.65
2022-12-13T00:24:57.947Z,28.75
2022-12-13T00:27:28.650Z,36.10
2022-12-13T00:30:00.227Z,32.63
2022-12-13T00:32:36.371Z,30.62
2022-12-13T00:35:08.257Z,33.87
2022-12-13T00:37:38.928Z,31.40
2022-12-13T00:40:10.875Z,31.12
2022-12-13T00:42:41.846Z,31.17
2022-12-13T00:45:13.419Z,28.80
2022-12-13T00:47:44.498Z,29.00
2022-12-13T00:50:16.815Z,33.15
2022-12-13T00:52:47.533Z,27.48
2022-12-13T00:55:18.241Z,28.10
2022-12-13T00:57:49.631Z,29.40
2022-12-13T01:00:20.767Z,29.85
2022-12-13T01:02:51.456Z,29.40
2022-12-13T01:05:47.258Z,29.32
2022-12-13T01:07:54.650Z,29.77
2022-12-13T01:10:25.345Z,27.67
2022-12-13T01:12:56.344Z,28.77
2022-12-13T01:15:27.041Z,29.87
2022-12-13T01:17:57.906Z,29.07
2022-12-13T01:20:28.633Z,28.75
2022-12-13T01:22:59.272Z,30.77
2022-12-13T01:25:30.061Z,28.87
2022-12-13T01:28:01.020Z,29.07
2022-12-13T01:30:31.919Z,28.70
2022-12-13T01:33:02.603Z,27.20
2022-12-13T01:35:37.817Z,27.90
2022-12-13T01:38:15.770Z,28.67
2022-12-13T01:40:52.356Z,30.23
2022-12-13T01:43:24.515Z,28.27
2022-12-13T01:45:55.367Z,26.17
2022-12-13T01:48:28.588Z,25.00
2022-12-13T01:51:06.988Z,25.90
2022-12-13T01:53:43.888Z,26.35
2022-12-13T01:58:50.400Z,26.75
2022-12-13T02:01:22.391Z,25.77
2022-12-13T02:04:01.366Z,25.75
2022-12-13T02:06:40.269Z,25.30
2022-12-13T02:09:12.516Z,25.70
2022-12-13T02:11:48.574Z,25.45
2022-12-13T02:14:20.328Z,29.40
2022-12-13T02:17:13.015Z,26.57
2022-12-13T02:20:05.013Z,25.12
2022-12-13T02:23:11.490Z,26.33
2022-12-13T02:25:53.932Z,24.67
2022-12-13T02:28:32.664Z,23.95
2022-12-13T02:31:21.557Z,25.45
2022-12-13T02:34:01.590Z,24.98
2022-12-13T02:37:17.823Z,24.27
2022-12-13T02:39:43.006Z,23.98
2022-12-13T02:42:21.864Z,24.82
2022-12-13T02:44:54.353Z,24.67
2022-12-13T02:47:31.631Z,24.67
2022-12-13T02:50:05.026Z,25.45
2022-12-13T02:52:36.905Z,24.10
2022-12-13T02:55:12.959Z,26.00
2022-12-13T02:57:46.753Z,25.35
2022-12-13T03:00:29.686Z,23.85
2022-12-13T03:03:06.119Z,23.90
2022-12-13T03:06:00.757Z,24.05
2022-12-13T03:08:39.545Z,21.62
2022-12-13T03:11:15.379Z,24.15
2022-12-13T03:14:07.348Z,21.60
2022-12-13T03:16:41.478Z,22.85
2022-12-13T03:19:14.570Z,22.27
2022-12-13T03:22:01.371Z,22.07
2022-12-13T03:24:32.323Z,25.52
2022-12-13T03:27:10.473Z,23.07
2022-12-13T03:29:41.376Z,23.40
2022-12-13T03:32:12.132Z,22.82
2022-12-13T03:34:44.039Z,23.67
2022-12-13T03:37:15.344Z,27.77
2022-12-13T03:39:46.628Z,22.85
2022-12-13T03:42:18.779Z,22.25
2022-12-13T03:44:49.457Z,25.92
2022-12-13T03:47:20.182Z,23.22
2022-12-13T03:49:54.059Z,22.42
2022-12-13T03:52:23.901Z,22.22
2022-12-13T03:54:54.585Z,22.15
2022-12-13T03:57:25.616Z,21.85
2022-12-13T03:59:56.288Z,22.60
2022-12-13T04:02:30.970Z,23.27
2022-12-13T04:05:00.930Z,22.15
2022-12-13T04:07:34.657Z,22.30
2022-12-13T04:10:25.502Z,22.50
2022-12-13T04:12:56.420Z,22.95
2022-12-13T04:15:28.514Z,21.87
2022-12-13T04:17:59.298Z,21.27
2022-12-13T04:20:30.486Z,21.10
2022-12-13T04:23:01.669Z,20.65
2022-12-13T04:25:33.819Z,22.25
2022-12-13T04:28:06.671Z,22.40
2022-12-13T04:30:37.898Z,21.93
2022-12-13T04:33:08.777Z,20.30
2022-12-13T04:35:39.459Z,21.93
2022-12-13T04:38:10.492Z,21.02
2022-12-13T04:40:41.659Z,21.52
2022-12-13T04:43:12.766Z,20.65
2022-12-13T04:45:43.781Z,20.15
2022-12-13T04:48:30.319Z,20.43
2022-12-13T04:50:47.070Z,20.37
2022-12-13T04:53:23.857Z,22.13
2022-12-13T04:58:28.799Z,21.52
2022-12-13T05:00:59.660Z,19.80
2022-12-13T05:03:31.637Z,20.32
2022-12-13T05:06:02.404Z,20.40
2022-12-13T05:08:35.609Z,20.77
2022-12-13T05:11:07.592Z,19.55
2022-12-13T05:13:38.573Z,19.55
2022-12-13T05:16:10.653Z,20.97
2022-12-13T05:18:41.638Z,20.95
2022-12-13T05:21:15.018Z,19.25
2022-12-13T05:23:46.931Z,20.15
2022-12-13T05:26:17.912Z,20.05
2022-12-13T05:28:50.084Z,20.35
2022-12-13T05:31:23.459Z,19.67
2022-12-13T05:33:52.941Z,19.70
2022-12-13T05:36:28.921Z,20.25
2022-12-13T05:38:58.954Z,19.87
2022-12-13T05:41:32.327Z,19.87
2022-12-13T05:44:03.595Z,19.32
2022-12-13T05:46:41.300Z,19.55
2022-12-13T05:49:07.120Z,19.57
2022-12-13T05:51:37.923Z,18.85
2022-12-13T05:54:09.473Z,19.27
2022-12-13T05:56:40.306Z,19.52
2022-12-13T05:59:11.086Z,19.55
2022-12-13T06:01:44.026Z,18.92
2022-12-13T06:04:22.364Z,20.70
2022-12-13T06:06:47.510Z,19.80
2022-12-13T06:09:19.773Z,19.42
2022-12-13T06:12:00.988Z,20.12
2022-12-13T06:14:24.460Z,19.65
2022-12-13T06:17:01.296Z,19.87
2022-12-13T06:22:04.027Z,19.32
2022-12-13T06:24:35.149Z,19.70
2022-12-13T06:27:09.717Z,19.27
2022-12-13T06:29:44.454Z,20.27
2022-12-13T06:32:15.425Z,19.55
2022-12-13T06:34:49.666Z,19.12
2022-12-13T06:37:20.486Z,19.30
2022-12-13T06:39:51.219Z,19.02
2022-12-13T06:42:22.620Z,19.65
2022-12-13T06:44:56.160Z,19.42
2022-12-13T06:47:31.045Z,19.62
2022-12-13T06:50:05.660Z,20.15
2022-12-13T06:52:36.004Z,18.57
2022-12-13T06:55:07.391Z,19.42
2022-12-13T06:57:38.096Z,19.12
2022-12-13T07:00:11.540Z,19.20
2022-12-13T07:02:42.298Z,18.48
2022-12-13T07:05:13.415Z,18.65
2022-12-13T07:07:44.080Z,19.00
2022-12-13T07:10:22.683Z,18.52
2022-12-13T07:12:48.414Z,18.98
2022-12-13T07:15:22.963Z,19.00
2022-12-13T07:17:54.161Z,18.67
2022-12-13T07:20:24.950Z,19.02
2022-12-13T07:22:59.767Z,19.17
2022-12-13T07:25:32.674Z,19.65
2022-12-13T07:28:08.932Z,18.95
2022-12-13T07:30:41.977Z,21.17
2022-12-13T07:33:12.950Z,18.62
2022-12-13T07:35:46.122Z,19.42
2022-12-13T07:38:19.982Z,19.62
2022-12-13T07:40:54.367Z,19.17
2022-12-13T07:43:30.947Z,18.02
2022-12-13T07:46:03.130Z,17.23
2022-12-13T07:48:34.635Z,17.50
2022-12-13T07:51:08.366Z,17.48
2022-12-13T07:53:39.993Z,18.55
2022-12-13T07:56:17.511Z,18.67
2022-12-13T07:58:49.633Z,17.80
2022-12-13T08:01:26.961Z,17.32
2022-12-13T08:03:57.976Z,17.62
2022-12-13T08:06:33.108Z,17.60
2022-12-13T08:09:05.236Z,16.17
2022-12-13T08:11:39.898Z,16.05
2022-12-13T08:14:14.993Z,16.25
2022-12-13T08:16:47.137Z,17.80
2022-12-13T08:19:21.116Z,18.48
2022-12-13T08:21:58.247Z,18.92
2022-12-13T08:27:07.116Z,19.32
2022-12-13T08:29:38.210Z,18.42
2022-12-13T08:32:12.603Z,16.95
2022-12-13T08:34:46.131Z,18.17
2022-12-13T08:37:16.841Z,16.85
2022-12-13T08:39:47.971Z,16.25
2022-12-13T08:42:20.576Z,16.50
2022-12-13T08:44:55.898Z,16.10
2022-12-13T08:47:30.904Z,16.82
2022-12-13T08:50:04.818Z,17.52
2022-12-13T08:52:40.748Z,17.42
2022-12-13T08:55:09.349Z,16.67
2022-12-13T08:57:41.216Z,17.15
2022-12-13T09:00:15.221Z,17.23
2022-12-13T09:02:48.303Z,16.25
2022-12-13T09:05:33.418Z,17.42
2022-12-13T09:07:55.015Z,16.93
2022-12-13T09:10:44.944Z,17.70
2022-12-13T09:13:31.981Z,17.45
2022-12-13T09:15:52.917Z,16.95
2022-12-13T09:18:36.568Z,17.57
2022-12-13T09:21:14.345Z,17.52
2022-12-13T09:23:49.633Z,18.07
2022-12-13T09:26:25.126Z,18.70
2022-12-13T09:28:53.070Z,18.87
2022-12-13T09:31:27.194Z,19.00
2022-12-13T09:34:01.047Z,18.60
2022-12-13T09:36:31.698Z,20.15
2022-12-13T09:39:02.620Z,20.50
2022-12-13T09:41:44.303Z,20.00
2022-12-13T09:44:49.655Z,19.57
2022-12-13T09:47:46.841Z,19.20
2022-12-13T09:50:38.550Z,19.17
2022-12-13T09:53:05.994Z,20.08
2022-12-13T09:55:42.428Z,19.37
2022-12-13T09:58:17.176Z,19.85
2022-12-13T10:00:52.269Z,19.30
2022-12-13T10:03:24.283Z,18.25
2022-12-13T10:06:04.778Z,18.32
2022-12-13T10:08:40.835Z,18.82
2022-12-13T10:11:19.932Z,18.70
2022-12-13T10:14:05.311Z,18.70
2022-12-13T10:16:42.066Z,18.15
2022-12-13T10:21:46.905Z,18.52
2022-12-13T10:24:32.899Z,18.60
2022-12-13T10:26:52.536Z,19.10
2022-12-13T10:29:23.403Z,20.95
2022-12-13T10:31:57.241Z,21.55
2022-12-13T10:34:35.856Z,20.30
2022-12-13T10:37:34.820Z,19.73
2022-12-13T10:40:08.502Z,19.87
2022-12-13T10:42:39.174Z,21.23
2022-12-13T10:45:12.565Z,22.52
2022-12-13T10:47:46.962Z,23.62
2022-12-13T10:50:30.172Z,23.02
2022-12-13T10:53:02.979Z,22.93
2022-12-13T10:55:36.921Z,22.98
2022-12-13T10:58:13.333Z,23.73
2022-12-13T11:00:51.032Z,22.73
2022-12-13T11:03:35.717Z,22.07
2022-12-13T11:06:19.121Z,21.90
2022-12-13T11:08:49.765Z,22.00
2022-12-13T11:11:23.775Z,21.73
2022-12-13T11:14:03.849Z,22.45
2022-12-13T11:16:38.712Z,20.72
2022-12-13T11:19:12.377Z,20.43
2022-12-13T11:21:46.515Z,20.68
2022-12-13T11:24:23.312Z,21.60
2022-12-13T11:29:57.688Z,21.77
2022-12-13T11:33:00.439Z,22.48
2022-12-13T11:36:05.303Z,22.90
2022-12-13T11:38:58.234Z,23.10
2022-12-13T11:41:36.587Z,24.07
2022-12-13T11:44:18.321Z,24.12
2022-12-13T11:46:51.528Z,24.57
2022-12-13T11:49:29.388Z,24.23
2022-12-13T11:52:22.229Z,25.10
2022-12-13T11:55:04.021Z,24.77
2022-12-13T11:58:11.808Z,25.88
2022-12-13T12:00:45.215Z,25.75
2022-12-13T12:03:23.214Z,26.52
2022-12-13T12:06:05.077Z,26.70
2022-12-13T12:08:40.780Z,26.70
2022-12-13T12:11:30.203Z,27.00
2022-12-13T12:14:10.502Z,25.72
2022-12-13T12:16:55.699Z,26.93
2022-12-13T12:19:30.589Z,26.50
2022-12-13T12:22:14.704Z,27.73
2022-12-13T12:25:09.969Z,28.45
2022-12-13T12:28:15.805Z,28.42
2022-12-13T12:30:57.572Z,30.35
2022-12-13T12:33:53.158Z,30.62
2022-12-13T12:36:56.209Z,30.90
2022-12-13T12:39:34.386Z,29.80
2022-12-13T12:42:25.440Z,30.32
2022-12-13T12:45:54.704Z,30.55
2022-12-13T12:50:55.740Z,31.50
2022-12-13T12:53:46.610Z,31.40
2022-12-13T12:56:37.106Z,31.33
2022-12-13T12:59:18.781Z,30.95
2022-12-13T13:02:03.787Z,32.10
2022-12-13T13:04:44.334Z,32.95
2022-12-13T13:07:23.508Z,33.90
2022-12-13T13:09:55.041Z,33.27
2022-12-13T13:12:30.836Z,34.83
2022-12-13T13:15:02.861Z,35.75
2022-12-13T13:17:37.154Z,35.17
2022-12-13T13:20:25.215Z,34.75
2022-12-13T13:26:00.324Z,34.65
2022-12-13T13:30:44.905Z,35.00
2022-12-13T13:33:18.773Z,36.08
2022-12-13T13:35:52.351Z,36.50
2022-12-13T13:38:31.445Z,37.17
2022-12-13T13:41:04.924Z,37.63
2022-12-13T13:43:35.606Z,40.23
2022-12-13T13:46:15.568Z,38.13
2022-12-13T13:49:01.174Z,39.03
2022-12-13T13:52:23.963Z,38.80
2022-12-13T13:54:34.385Z,38.88
2022-12-13T13:57:09.961Z,41.88
2022-12-13T14:00:17.383Z,41.05
2022-12-13T14:03:33.117Z,41.28
2022-12-13T14:06:23.040Z,40.08
2022-12-13T14:09:16.767Z,39.78
2022-12-13T14:12:23.947Z,39.48
2022-12-13T14:15:16.580Z,40.95
2022-12-13T14:17:52.684Z,39.73
2022-12-13T14:20:26.177Z,39.27
2022-12-13T14:23:06.845Z,39.13
2022-12-13T14:26:05.886Z,38.20
2022-12-13T14:28:50.413Z,38.42
2022-12-13T14:31:28.826Z,39.15
2022-12-13T14:34:03.385Z,39.55
2022-12-13T14:36:37.619Z,40.52
2022-12-13T14:39:32.003Z,38.90
2022-12-13T14:42:05.494Z,39.58
2022-12-13T14:44:36.773Z,39.10
2022-12-13T14:47:12.164Z,41.23
2022-12-13T14:49:50.412Z,40.05
2022-12-13T14:52:27.579Z,40.40
2022-12-13T14:55:00.937Z,41.83
2022-12-13T14:57:33.570Z,41.00
2022-12-13T15:00:10.071Z,41.08
2022-12-13T15:02:41.384Z,41.18
2022-12-13T15:05:16.974Z,41.45
2022-12-13T15:07:50.552Z,39.75
2022-12-13T15:10:48.382Z,41.75
2022-12-13T15:13:30.091Z,41.00
2022-12-13T15:16:02.093Z,41.15
2022-12-13T15:18:34.289Z,40.48
2022-12-13T15:21:25.957Z,38.95
2022-12-13T15:23:57.776Z,37.70
2022-12-13T15:26:30.165Z,36.23
2022-12-13T15:29:09.414Z,36.00
2022-12-13T15:31:48.693Z,35.38
2022-12-13T15:34:39.364Z,33.67
2022-12-13T15:40:20.147Z,33.88
2022-12-13T15:42:56.792Z,33.73
2022-12-13T15:45:36.622Z,33.23
2022-12-13T15:48:03.066Z,33.55
2022-12-13T15:50:43.813Z,33.80
2022-12-13T15:53:31.713Z,32.78
2022-12-13T15:56:09.700Z,33.00
2022-12-13T15:58:38.761Z,32.45
2022-12-13T16:01:10.961Z,32.00
2022-12-13T16:03:48.971Z,30.62
2022-12-13T16:06:24.518Z,30.92
2022-12-13T16:08:59.703Z,29.37
2022-12-13T16:11:35.435Z,30.45
2022-12-13T16:14:35.305Z,29.87
2022-12-13T16:17:33.745Z,29.10
2022-12-13T16:20:10.523Z,29.23
2022-12-13T16:25:16.642Z,28.83
2022-12-13T16:27:50.148Z,29.15
2022-12-13T16:30:30.054Z,28.23
2022-12-13T16:33:18.544Z,28.38
2022-12-13T16:35:37.523Z,26.68
2022-12-13T16:38:10.292Z,28.45
2022-12-13T16:40:42.657Z,26.75
2022-12-13T16:43:31.126Z,27.00
2022-12-13T16:45:57.665Z,27.87
2022-12-13T16:48:29.298Z,27.37
2022-12-13T16:51:06.409Z,25.77
2022-12-13T16:53:39.350Z,26.87
2022-12-13T16:56:15.027Z,26.48
2022-12-13T16:58:50.090Z,25.80
2022-12-13T17:01:23.317Z,27.35
2022-12-13T17:03:54.494Z,27.40
2022-12-13T17:06:27.021Z,26.70
2022-12-13T17:08:57.806Z,26.07
2022-12-13T17:11:28.481Z,25.88
2022-12-13T17:14:00.299Z,26.85
2022-12-13T17:16:49.259Z,26.00
2022-12-13T17:19:20.596Z,25.80
2022-12-13T17:21:52.866Z,26.05
2022-12-13T17:24:23.728Z,27.20
2022-12-13T17:26:55.800Z,27.45
2022-12-13T17:29:27.536Z,26.68
2022-12-13T17:32:01.266Z,26.93
2022-12-13T17:34:32.548Z,27.25
2022-12-13T17:37:09.987Z,26.90
2022-12-13T17:39:36.744Z,27.50
2022-12-13T17:42:07.771Z,26.85
2022-12-13T17:44:38.695Z,25.43
2022-12-13T17:47:09.363Z,27.90
2022-12-13T17:49:40.109Z,25.65
2022-12-13T17:52:11.950Z,25.90
2022-12-13T17:54:44.379Z,27.15
2022-12-13T17:57:15.067Z,26.07
2022-12-13T17:59:45.785Z,26.00
2022-12-13T18:02:17.875Z,26.52
2022-12-13T18:04:48.592Z,26.37
2022-12-13T18:07:19.594Z,27.13
2022-12-13T18:09:50.499Z,26.02
2022-12-13T18:12:21.175Z,26.77
2022-12-13T18:14:52.048Z,25.10
2022-12-13T18:17:40.465Z,26.42
2022-12-13T18:19:55.221Z,27.15
2022-12-13T18:22:25.903Z,27.67
2022-12-13T18:24:56.537Z,28.65
2022-12-13T18:27:27.222Z,28.15
2022-12-13T18:29:57.986Z,27.95
2022-12-13T18:32:30.122Z,27.93
2022-12-13T18:35:03.979Z,27.17
2022-12-13T18:37:35.176Z,27.50
2022-12-13T18:40:07.528Z,27.25
2022-12-13T18:42:38.285Z,27.20
2022-12-13T18:45:11.148Z,27.73
2022-12-13T18:47:42.818Z,26.85
2022-12-13T18:50:13.957Z,26.37
2022-12-13T18:52:45.110Z,27.70
2022-12-13T18:55:16.289Z,27.10
2022-12-13T18:57:48.226Z,26.85
2022-12-13T19:00:21.549Z,26.70
2022-12-13T19:02:51.609Z,26.73
2022-12-13T19:05:25.044Z,26.85
2022-12-13T19:07:55.088Z,28.07
2022-12-13T19:10:25.991Z,27.05
2022-12-13T19:12:56.700Z,26.52
2022-12-13T19:15:28.628Z,27.15
2022-12-13T19:17:59.426Z,27.90
2022-12-13T19:20:30.203Z,28.62
2022-12-13T19:23:00.991Z,28.02
2022-12-13T19:25:31.657Z,27.17
2022-12-13T19:28:02.360Z,26.55
2022-12-13T19:30:33.833Z,28.12
2022-12-13T19:33:04.743Z,26.85
2022-12-13T19:35:35.540Z,28.47
2022-12-13T19:38:06.237Z,28.77
2022-12-13T19:40:40.152Z,27.65
2022-12-13T19:43:13.121Z,29.20
2022-12-13T19:45:46.735Z,27.82
2022-12-13T19:48:26.255Z,28.55
2022-12-13T19:51:02.446Z,29.45
2022-12-13T19:53:33.869Z,28.00
2022-12-13T19:56:11.759Z,28.23
2022-12-13T19:58:43.154Z,28.07
2022-12-13T20:01:14.717Z,27.52
2022-12-13T20:03:47.439Z,29.30
2022-12-13T20:06:20.975Z,28.70
2022-12-13T20:08:52.452Z,29.40
2022-12-13T20:11:24.500Z,28.90
2022-12-13T20:13:57.353Z,29.55
2022-12-13T20:16:29.390Z,29.80
2022-12-13T20:19:06.614Z,28.25
2022-12-13T20:21:37.298Z,29.80
2022-12-13T20:24:11.185Z,28.90
2022-12-13T20:26:41.946Z,28.73
2022-12-13T20:29:16.302Z,30.17
2022-12-13T20:31:48.735Z,28.20
2022-12-13T20:34:20.288Z,29.63
2022-12-13T20:36:51.358Z,29.42
2022-12-13T20:39:24.021Z,29.57
2022-12-13T20:41:54.934Z,30.08
2022-12-13T20:44:25.656Z,30.32
2022-12-13T20:46:56.571Z,30.82
2022-12-13T20:49:27.294Z,30.17
2022-12-13T20:51:57.967Z,30.82
2022-12-13T20:54:28.610Z,30.43
2022-12-13T20:56:59.641Z,30.50
2022-12-13T20:59:30.384Z,30.92
2022-12-13T21:02:01.163Z,30.37
2022-12-13T21:04:34.868Z,30.08
2022-12-13T21:07:06.669Z,31.07
2022-12-13T21:09:37.460Z,31.23
2022-12-13T21:12:08.510Z,31.07
2022-12-13T21:14:39.931Z,30.08
2022-12-13T21:17:12.224Z,30.00
2022-12-13T21:19:44.411Z,31.48
2022-12-13T21:22:16.567Z,30.27
2022-12-13T21:24:47.236Z,30.90
2022-12-13T21:27:18.725Z,31.65
2022-12-13T21:29:49.837Z,32.73
2022-12-13T21:32:30.912Z,31.90
2022-12-13T21:35:07.233Z,31.00
2022-12-13T21:37:37.911Z,31.30
2022-12-13T21:40:13.104Z,31.55
2022-12-13T21:42:46.401Z,31.93
2022-12-13T21:45:17.392Z,31.48
2022-12-13T21:47:48.066Z,31.52
2022-12-13T21:50:18.860Z,31.52
2022-12-13T21:52:49.881Z,29.70
2022-12-13T21:58:10.630Z,32.17
2022-12-13T22:00:41.486Z,32.93
2022-12-13T22:03:12.268Z,33.78
2022-12-13T22:05:43.070Z,32.58
2022-12-13T22:08:13.855Z,31.70
2022-12-13T22:11:03.935Z,31.50
2022-12-13T22:13:34.883Z,31.73
2022-12-13T22:16:06.253Z,33.05
2022-12-13T22:18:40.061Z,34.13
2022-12-13T22:21:16.320Z,32.63
2022-12-13T22:23:47.091Z,33.97
2022-12-13T22:26:17.888Z,34.25
2022-12-13T22:28:50.782Z,32.83
2022-12-13T22:31:26.700Z,34.05
2022-12-13T22:33:55.047Z,34.95
2022-12-13T22:36:25.857Z,35.68
2022-12-13T22:38:56.643Z,32.93
2022-12-13T22:41:27.350Z,35.00
2022-12-13T22:44:00.453Z,36.85
2022-12-13T22:46:31.315Z,36.03
2022-12-13T22:49:02.118Z,33.53
2022-12-13T22:51:33.620Z,35.15
2022-12-13T22:54:04.640Z,34.25
2022-12-13T22:56:35.346Z,33.95
2022-12-13T22:59:08.612Z,35.25
2022-12-13T23:01:41.381Z,33.75
2022-12-13T23:04:13.892Z,34.27
2022-12-13T23:06:45.759Z,34.35
2022-12-13T23:09:19.144Z,33.70
2022-12-13T23:12:07.549Z,34.48
2022-12-13T23:14:38.348Z,35.17
2022-12-13T23:17:09.400Z,35.17
2022-12-13T23:19:50.127Z,36.65
2022-12-13T23:22:14.326Z,39.15
2022-12-13T23:24:45.976Z,41.33
2022-12-13T23:27:16.962Z,38.90
2022-12-13T23:29:47.977Z,38.95
2022-12-13T23:32:19.407Z,40.65
2022-12-13T23:34:56.055Z,39.35
2022-12-13T23:37:27.072Z,38.60
2022-12-13T23:39:58.821Z,39.33
2022-12-13T23:42:33.633Z,40.52
2022-12-13T23:45:04.490Z,40.23
2022-12-13T23:47:36.343Z,44.42
2022-12-13T23:50:07.580Z,42.50
2022-12-13T23:52:38.892Z,42.25
2022-12-13T23:55:11.176Z,43.58
2022-12-13T23:57:46.094Z,44.50
